Time;durP1;ratioP1;P1;durP2;ratioP2;P2;SDS_P1;SDS_P2;PMS_P1;PMS_P2;Temp;Humidity;BMP_temperature;BMP_pressure;BME280_temperature;BME280_humidity;BME280_pressure;Samples;Min_cycle;Max_cycle;Signal;HPM_P1;HPM_P2
2022/05/18 00:01:39;;;;;;;29.27;8.13;;;17.10;31.50;;;;;;5025487;28;20467;-62
2022/05/18 00:04:05;;;;;;;28.57;9.07;;;17.00;31.60;;;;;;5026533;28;20458;-61
2022/05/18 00:06:32;;;;;;;30.93;9.20;;;17.00;31.60;;;;;;5021435;28;20459;-62
2022/05/18 00:08:59;;;;;;;30.80;10.50;;;16.90;31.90;;;;;;5024965;28;20992;-61
2022/05/18 00:11:26;;;;;;;31.10;10.10;;;16.90;32.00;;;;;;5024807;28;20467;-61
2022/05/18 00:13:55;;;;;;;28.57;8.97;;;16.90;32.00;;;;;;5025991;28;20493;-61
2022/05/18 00:16:24;;;;;;;29.10;9.43;;;16.80;32.10;;;;;;5015607;28;20473;-61
2022/05/18 00:18:51;;;;;;;27.97;8.73;;;16.70;32.30;;;;;;5026754;28;20467;-62
2022/05/18 00:21:18;;;;;;;30.33;9.83;;;16.70;32.10;;;;;;5027579;28;20462;-61
2022/05/18 00:23:45;;;;;;;31.97;9.10;;;16.70;32.00;;;;;;5028341;28;20467;-61
2022/05/18 00:26:12;;;;;;;30.00;9.10;;;16.70;31.90;;;;;;5029522;28;20454;-59
2022/05/18 00:28:39;;;;;;;32.00;9.37;;;16.70;31.80;;;;;;5029039;28;20518;-63
2022/05/18 00:31:07;;;;;;;32.17;9.80;;;16.70;31.60;;;;;;5027755;28;20471;-60
2022/05/18 00:33:34;;;;;;;31.23;8.87;;;16.70;31.70;;;;;;5030128;28;20593;-61
2022/05/18 00:36:01;;;;;;;30.03;9.37;;;16.70;31.80;;;;;;5028739;28;20470;-63
2022/05/18 00:38:28;;;;;;;31.23;9.60;;;16.60;31.60;;;;;;5028380;28;20478;-61
2022/05/18 00:40:54;;;;;;;29.20;9.87;;;16.60;31.80;;;;;;5026837;28;20460;-62
2022/05/18 00:43:38;;;;;;;30.00;8.80;;;16.60;31.90;;;;;;5029103;28;20474;-60
2022/05/18 00:46:09;;;;;;;32.20;10.33;;;16.60;32.50;;;;;;5024686;28;20481;-61
2022/05/18 00:48:37;;;;;;;32.90;10.67;;;16.60;32.00;;;;;;5028874;28;20517;-62
2022/05/18 00:51:06;;;;;;;34.97;10.17;;;16.60;32.20;;;;;;5029475;28;20458;-61
2022/05/18 00:53:39;;;;;;;32.23;8.87;;;16.60;32.30;;;;;;5028508;28;20463;-63
2022/05/18 00:56:09;;;;;;;31.40;9.73;;;16.50;32.20;;;;;;5027302;28;20459;-62
2022/05/18 00:58:42;;;;;;;31.73;9.70;;;16.50;32.20;;;;;;5029645;28;21027;-61
2022/05/18 01:01:11;;;;;;;37.07;11.93;;;16.50;32.50;;;;;;5028476;28;20490;-60
2022/05/18 01:03:41;;;;;;;31.93;10.60;;;16.40;32.80;;;;;;5025097;28;20462;-62
2022/05/18 01:06:14;;;;;;;32.07;11.50;;;16.40;33.00;;;;;;5028129;28;20835;-61
2022/05/18 01:08:47;;;;;;;30.33;10.07;;;16.40;32.90;;;;;;5026278;28;20487;-61
2022/05/18 01:11:14;;;;;;;30.57;8.87;;;16.40;32.80;;;;;;5028330;28;20466;-62
2022/05/18 01:13:42;;;;;;;32.47;9.73;;;16.40;32.90;;;;;;5026787;28;20487;-62
2022/05/18 01:16:10;;;;;;;33.13;10.27;;;16.30;33.20;;;;;;5024905;28;20555;-61
2022/05/18 01:18:38;;;;;;;32.10;11.00;;;16.30;33.10;;;;;;5027394;28;20483;-61
2022/05/18 01:21:05;;;;;;;30.93;9.60;;;16.30;33.00;;;;;;5027926;28;20545;-62
2022/05/18 01:23:47;;;;;;;31.83;10.70;;;16.20;33.10;;;;;;5028902;28;20963;-61
2022/05/18 01:26:19;;;;;;;30.83;10.13;;;16.20;33.40;;;;;;5016876;28;20463;-61
2022/05/18 01:28:52;;;;;;;30.70;10.20;;;16.20;33.10;;;;;;5027406;28;20478;-61
2022/05/18 01:31:20;;;;;;;32.37;10.67;;;16.20;33.60;;;;;;5025444;28;20531;-61
2022/05/18 01:33:47;;;;;;;32.00;11.10;;;16.20;33.30;;;;;;5028236;28;20470;-62
2022/05/18 01:36:14;;;;;;;32.00;10.00;;;16.10;33.60;;;;;;5026887;28;20953;-62
2022/05/18 01:38:41;;;;;;;31.03;10.60;;;16.10;33.80;;;;;;5025945;28;20483;-61
2022/05/18 01:41:15;;;;;;;30.70;11.10;;;16.10;34.00;;;;;;5027733;28;20458;-61
2022/05/18 01:43:45;;;;;;;31.67;10.47;;;16.10;34.10;;;;;;5026952;28;20975;-61
2022/05/18 01:46:15;;;;;;;32.70;11.37;;;16.10;33.90;;;;;;5025722;28;20476;-62
2022/05/18 01:48:45;;;;;;;33.00;10.80;;;16.10;34.00;;;;;;5026538;28;20485;-61
2022/05/18 01:51:15;;;;;;;30.50;10.40;;;16.10;34.00;;;;;;5028186;28;20529;-61
2022/05/18 01:53:42;;;;;;;33.90;11.00;;;16.10;34.30;;;;;;5027610;28;20482;-61
2022/05/18 01:56:09;;;;;;;30.37;10.30;;;16.00;34.30;;;;;;5026124;28;20459;-62
2022/05/18 01:58:36;;;;;;;30.23;9.80;;;16.00;34.50;;;;;;5027375;28;20478;-62
2022/05/18 02:01:03;;;;;;;30.97;10.23;;;15.90;34.60;;;;;;5026508;28;20471;-62
2022/05/18 02:03:32;;;;;;;35.07;11.83;;;15.90;34.30;;;;;;5027277;28;20566;-61
2022/05/18 02:05:59;;;;;;;30.80;10.50;;;15.90;34.20;;;;;;5024550;28;20454;-59
2022/05/18 02:08:26;;;;;;;32.97;11.70;;;15.90;34.20;;;;;;5027932;28;20502;-62
2022/05/18 02:10:52;;;;;;;33.20;10.93;;;15.90;34.20;;;;;;5018374;28;20490;-63
2022/05/18 02:13:20;;;;;;;35.17;11.10;;;15.80;34.60;;;;;;5028212;28;20987;-61
2022/05/18 02:15:49;;;;;;;29.83;10.00;;;15.80;34.50;;;;;;5026238;28;21225;-62
2022/05/18 02:18:15;;;;;;;31.27;10.90;;;15.70;34.40;;;;;;5026965;28;20479;-63
2022/05/18 02:20:43;;;;;;;33.63;11.70;;;15.80;34.70;;;;;;5018738;28;20462;-60
2022/05/18 02:23:10;;;;;;;33.63;11.03;;;15.80;34.60;;;;;;5027933;28;20454;-62
2022/05/18 02:25:38;;;;;;;34.27;11.67;;;15.70;34.60;;;;;;5019511;28;20482;-62
2022/05/18 02:28:05;;;;;;;33.33;11.37;;;15.70;34.80;;;;;;5026482;28;20491;-62
2022/05/18 02:30:33;;;;;;;34.00;10.40;;;15.70;34.70;;;;;;5026975;28;20470;-62
2022/05/18 02:32:59;;;;;;;33.50;11.40;;;15.70;34.80;;;;;;5027957;28;20525;-63
2022/05/18 02:35:26;;;;;;;32.53;11.33;;;15.70;34.60;;;;;;5025647;28;20463;-61
2022/05/18 02:37:54;;;;;;;34.70;12.20;;;15.70;34.90;;;;;;5026023;28;20486;-62
2022/05/18 02:40:21;;;;;;;33.10;10.60;;;15.60;34.90;;;;;;5027077;28;20466;-62
2022/05/18 02:42:48;;;;;;;33.03;12.37;;;15.60;35.00;;;;;;5022886;28;20463;-61
2022/05/18 02:45:15;;;;;;;30.97;10.70;;;15.60;35.00;;;;;;5024565;28;20466;-61
2022/05/18 02:47:42;;;;;;;35.33;11.60;;;15.60;35.20;;;;;;5025410;28;20498;-60
2022/05/18 02:50:09;;;;;;;32.77;12.20;;;15.50;35.40;;;;;;5027487;28;20474;-61
2022/05/18 02:52:37;;;;;;;40.50;12.30;;;15.50;36.00;;;;;;5026437;28;20470;-62
2022/05/18 02:57:52;;;;;;;33.37;11.40;;;15.40;36.30;;;;;;5022658;28;20473;-59
2022/05/18 03:00:20;;;;;;;34.20;11.90;;;15.40;36.30;;;;;;5026685;28;20477;-61
2022/05/18 03:02:46;;;;;;;34.70;12.10;;;15.30;36.40;;;;;;5025985;28;20464;-61
2022/05/18 03:05:13;;;;;;;34.33;12.00;;;15.30;36.10;;;;;;5022659;28;21150;-62
2022/05/18 03:07:40;;;;;;;35.33;12.33;;;15.30;36.20;;;;;;5024554;28;20517;-62
2022/05/18 03:10:09;;;;;;;32.67;12.43;;;15.30;36.20;;;;;;5027104;28;20459;-60
2022/05/18 03:12:36;;;;;;;31.73;11.30;;;15.30;36.70;;;;;;5020952;28;20458;-63
2022/05/18 03:15:03;;;;;;;33.37;12.07;;;15.30;36.70;;;;;;5024234;28;20463;-61
2022/05/18 03:17:30;;;;;;;32.13;9.70;;;15.20;36.40;;;;;;5025783;28;21035;-60
2022/05/18 03:19:56;;;;;;;32.50;11.20;;;15.10;36.70;;;;;;5026388;28;20459;-61
2022/05/18 03:25:09;;;;;;;33.93;11.37;;;15.10;36.30;;;;;;5026285;28;20441;-67
2022/05/18 03:27:40;;;;;;;34.30;11.90;;;15.10;36.20;;;;;;5025498;28;20486;-67
2022/05/18 03:30:09;;;;;;;34.20;12.37;;;15.10;36.70;;;;;;5020255;28;20468;-68
2022/05/18 03:32:36;;;;;;;34.73;11.07;;;15.10;37.20;;;;;;5014458;28;20554;-68
2022/05/18 03:35:03;;;;;;;34.07;11.13;;;15.10;37.20;;;;;;5026720;28;20459;-61
2022/05/18 03:37:29;;;;;;;33.10;11.80;;;15.10;37.00;;;;;;5017308;28;21066;-60
2022/05/18 03:39:56;;;;;;;35.13;11.63;;;15.10;36.90;;;;;;5026914;28;20540;-61
2022/05/18 03:42:25;;;;;;;34.43;13.00;;;15.10;36.60;;;;;;5021025;28;20462;-60
2022/05/18 03:44:51;;;;;;;32.17;11.73;;;15.10;36.90;;;;;;5026957;28;20548;-60
2022/05/18 03:47:18;;;;;;;35.10;13.13;;;15.20;36.50;;;;;;5021425;28;20467;-62
2022/05/18 03:49:45;;;;;;;34.83;11.30;;;15.20;36.60;;;;;;5026414;28;20855;-61
2022/05/18 03:52:11;;;;;;;34.30;11.60;;;15.20;36.50;;;;;;5020224;28;20460;-61
2022/05/18 03:54:38;;;;;;;35.30;12.00;;;15.20;36.40;;;;;;5025277;28;20470;-61
2022/05/18 03:57:08;;;;;;;34.00;11.20;;;15.20;36.30;;;;;;5030869;28;20465;-61
2022/05/18 03:59:36;;;;;;;33.93;11.87;;;15.20;36.20;;;;;;5029282;28;20905;-61
2022/05/18 04:02:03;;;;;;;37.13;12.00;;;15.20;36.60;;;;;;5019309;28;20481;-61
2022/05/18 04:04:29;;;;;;;34.00;11.97;;;15.20;36.40;;;;;;5030266;28;20949;-59
2022/05/18 04:06:56;;;;;;;33.93;12.23;;;15.20;36.50;;;;;;5033828;28;20467;-59
2022/05/18 04:09:23;;;;;;;35.80;11.87;;;15.20;37.00;;;;;;5038494;28;20483;-58
2022/05/18 04:11:49;;;;;;;36.27;12.80;;;15.20;37.20;;;;;;5038281;28;20469;-60
2022/05/18 04:14:16;;;;;;;33.30;12.20;;;15.10;37.00;;;;;;5037574;28;20489;-59
2022/05/18 04:16:48;;;;;;;34.80;11.80;;;15.20;36.90;;;;;;5032809;28;20469;-59
2022/05/18 04:19:15;;;;;;;35.10;11.90;;;15.20;36.90;;;;;;5024202;28;20485;-60
2022/05/18 04:21:42;;;;;;;34.47;12.73;;;15.20;36.80;;;;;;5027705;28;20542;-59
2022/05/18 04:24:09;;;;;;;36.47;11.87;;;15.20;37.30;;;;;;5028681;28;20463;-59
2022/05/18 04:26:35;;;;;;;34.20;12.10;;;15.30;37.50;;;;;;5027325;28;20470;-60
2022/05/18 04:29:02;;;;;;;32.03;12.10;;;15.30;37.40;;;;;;5025735;28;20494;-59
2022/05/18 04:31:29;;;;;;;33.87;11.50;;;15.40;37.00;;;;;;5027339;28;20471;-61
2022/05/18 04:33:57;;;;;;;33.03;10.20;;;15.40;37.20;;;;;;5023701;28;20469;-60
2022/05/18 04:36:24;;;;;;;34.93;11.80;;;15.50;37.00;;;;;;5027495;28;20473;-60
2022/05/18 04:38:50;;;;;;;34.50;11.17;;;15.50;37.00;;;;;;5029339;28;20485;-60
2022/05/18 04:41:17;;;;;;;32.13;10.33;;;15.60;37.40;;;;;;5026810;28;20459;-61
2022/05/18 04:43:44;;;;;;;32.60;10.57;;;15.60;37.40;;;;;;5027726;28;20458;-60
2022/05/18 04:46:11;;;;;;;31.37;10.17;;;15.70;37.00;;;;;;5025703;28;20463;-61
2022/05/18 04:48:37;;;;;;;34.10;10.10;;;15.70;37.10;;;;;;5026206;28;21000;-61
2022/05/18 04:51:05;;;;;;;34.93;10.20;;;15.90;37.00;;;;;;5028033;28;20578;-60
2022/05/18 04:53:34;;;;;;;35.47;10.80;;;16.30;36.70;;;;;;5027034;28;20471;-61
2022/05/18 04:56:00;;;;;;;31.10;8.67;;;16.90;35.30;;;;;;5025384;28;20499;-60
2022/05/18 04:58:27;;;;;;;33.77;9.63;;;17.60;33.50;;;;;;5028719;28;20471;-60
2022/05/18 05:00:59;;;;;;;34.13;10.03;;;18.30;31.70;;;;;;5021184;28;20478;-59
2022/05/18 05:03:26;;;;;;;32.37;8.40;;;18.90;30.20;;;;;;5028872;28;20462;-57
2022/05/18 05:05:53;;;;;;;32.90;8.67;;;19.50;29.20;;;;;;5020316;28;20879;-60
2022/05/18 05:08:21;;;;;;;31.80;8.27;;;20.00;26.90;;;;;;5028029;28;20494;-59
2022/05/18 05:10:48;;;;;;;31.30;8.70;;;20.60;24.80;;;;;;5022123;28;20471;-59
2022/05/18 05:13:15;;;;;;;32.70;8.40;;;21.10;22.80;;;;;;5026286;28;20466;-60
2022/05/18 05:15:42;;;;;;;33.70;8.90;;;21.60;21.20;;;;;;5024583;28;20470;-59
2022/05/18 05:18:09;;;;;;;34.27;9.00;;;22.10;20.20;;;;;;5028230;28;20490;-61
2022/05/18 05:20:35;;;;;;;32.30;7.23;;;22.50;18.80;;;;;;5025488;28;20463;-59
2022/05/18 05:23:02;;;;;;;31.77;7.40;;;23.00;18.80;;;;;;5027093;28;20463;-60
2022/05/18 05:25:30;;;;;;;31.80;8.33;;;23.50;17.40;;;;;;5026411;28;20459;-59
2022/05/18 05:27:57;;;;;;;31.70;7.80;;;24.00;16.30;;;;;;5028544;28;20495;-59
2022/05/18 05:30:24;;;;;;;30.27;7.90;;;24.60;15.60;;;;;;5026300;28;20501;-59
2022/05/18 05:32:50;;;;;;;33.10;8.20;;;25.10;14.90;;;;;;5028281;28;20463;-59
2022/05/18 05:35:17;;;;;;;30.60;7.83;;;25.50;13.30;;;;;;5029439;28;20467;-57
2022/05/18 05:37:44;;;;;;;30.60;7.67;;;26.10;12.50;;;;;;5027749;28;20862;-57
2022/05/18 05:40:11;;;;;;;29.47;7.23;;;26.50;12.00;;;;;;5029678;28;20463;-58
2022/05/18 05:42:40;;;;;;;31.33;7.73;;;26.90;10.30;;;;;;5028405;28;20463;-57
2022/05/18 05:45:08;;;;;;;30.70;8.30;;;27.30;10.30;;;;;;5035536;28;20466;-58
2022/05/18 05:47:35;;;;;;;30.40;8.80;;;27.80;9.80;;;;;;5027975;28;20499;-58
2022/05/18 05:50:02;;;;;;;32.53;8.20;;;28.40;9.00;;;;;;5027357;28;20490;-58
2022/05/18 05:52:29;;;;;;;31.77;9.03;;;28.80;8.00;;;;;;5024375;28;20467;-56
2022/05/18 05:54:56;;;;;;;31.20;8.87;;;29.30;7.40;;;;;;5024542;28;20474;-58
2022/05/18 05:57:22;;;;;;;29.07;7.90;;;29.80;7.80;;;;;;5023583;28;20474;-57
2022/05/18 05:59:51;;;;;;;31.17;8.10;;;30.20;6.50;;;;;;5025005;28;20455;-55
2022/05/18 06:02:19;;;;;;;29.23;8.30;;;30.60;5.30;;;;;;5026246;28;20482;-58
2022/05/18 06:04:46;;;;;;;33.40;8.30;;;31.10;5.10;;;;;;5029433;28;20481;-57
2022/05/18 06:07:14;;;;;;;29.30;8.30;;;31.60;4.20;;;;;;5023126;28;20503;-57
2022/05/18 06:09:41;;;;;;;30.47;7.53;;;32.10;3.50;;;;;;5028056;28;20487;-56
2022/05/18 06:12:09;;;;;;;29.07;8.20;;;32.60;2.80;;;;;;5028807;28;20463;-59
2022/05/18 06:14:36;;;;;;;28.10;7.43;;;33.10;2.40;;;;;;5023518;28;20470;-59
2022/05/18 06:17:05;;;;;;;28.27;7.63;;;33.40;1.70;;;;;;5026435;28;20837;-59
2022/05/18 06:19:33;;;;;;;28.60;7.53;;;33.70;1.00;;;;;;5022212;28;20846;-58
2022/05/18 06:22:00;;;;;;;28.47;7.63;;;33.90;1.00;;;;;;5027577;28;20885;-64
2022/05/18 06:24:27;;;;;;;28.70;7.93;;;34.30;1.10;;;;;;5026354;28;20462;-63
2022/05/18 06:26:56;;;;;;;27.50;7.40;;;34.70;1.00;;;;;;5026639;28;20459;-64
2022/05/18 06:29:23;;;;;;;28.60;7.30;;;35.10;1.00;;;;;;5026263;28;20486;-63
2022/05/18 06:31:50;;;;;;;29.33;7.63;;;35.30;1.00;;;;;;5028051;28;20471;-63
2022/05/18 06:34:21;;;;;;;28.90;7.47;;;35.60;1.00;;;;;;5027602;28;20466;-64
2022/05/18 06:36:48;;;;;;;30.90;8.27;;;35.90;1.00;;;;;;5026674;28;20463;-64
2022/05/18 06:39:16;;;;;;;28.00;7.40;;;36.10;1.00;;;;;;5022737;28;20481;-64
2022/05/18 06:41:43;;;;;;;32.00;8.00;;;36.40;1.00;;;;;;5028115;28;20876;-63
2022/05/18 06:44:09;;;;;;;27.37;7.63;;;36.80;1.00;;;;;;5024721;28;20553;-64
2022/05/18 06:46:38;;;;;;;27.70;7.30;;;37.10;1.00;;;;;;5025677;28;20951;-65
2022/05/18 06:49:05;;;;;;;27.83;8.03;;;37.40;1.00;;;;;;5020507;28;20491;-64
2022/05/18 06:51:36;;;;;;;30.57;8.30;;;37.70;1.00;;;;;;5025334;28;20474;-64
2022/05/18 06:54:03;;;;;;;27.60;7.10;;;37.90;1.00;;;;;;5020477;28;20459;-65
2022/05/18 06:56:33;;;;;;;30.03;8.53;;;38.50;1.00;;;;;;5025754;28;20546;-62
2022/05/18 06:59:01;;;;;;;27.17;7.47;;;38.90;1.00;;;;;;5024953;28;20490;-62
2022/05/18 07:01:29;;;;;;;25.67;7.00;;;39.30;1.00;;;;;;5024330;28;20485;-62
2022/05/18 07:03:56;;;;;;;26.47;6.63;;;39.60;1.00;;;;;;5025426;28;20463;-62
2022/05/18 07:06:25;;;;;;;26.30;7.30;;;39.70;1.00;;;;;;5027977;28;20837;-62
2022/05/18 07:08:55;;;;;;;26.00;7.40;;;40.00;1.00;;;;;;5024155;28;20486;-61
2022/05/18 07:11:22;;;;;;;26.13;7.60;;;40.40;1.00;;;;;;5026003;28;20458;-63
2022/05/18 07:13:51;;;;;;;27.10;7.93;;;40.90;1.00;;;;;;5025911;28;20459;-63
2022/05/18 07:16:19;;;;;;;25.40;7.03;;;41.20;1.00;;;;;;5027039;28;20454;-60
2022/05/18 07:18:47;;;;;;;27.73;7.10;;;41.70;1.00;;;;;;5025231;28;20495;-61
2022/05/18 07:21:15;;;;;;;26.43;7.30;;;42.00;1.00;;;;;;5025649;28;20465;-61
2022/05/18 07:23:42;;;;;;;27.17;7.13;;;42.40;1.00;;;;;;5026355;28;20967;-63
2022/05/18 07:26:10;;;;;;;25.93;7.23;;;42.80;1.00;;;;;;5026074;28;20983;-63
2022/05/18 07:28:39;;;;;;;26.60;6.73;;;42.90;1.00;;;;;;5027638;28;20483;-62
2022/05/18 07:31:06;;;;;;;26.07;7.30;;;43.10;1.00;;;;;;5029343;28;20842;-60
2022/05/18 07:33:33;;;;;;;26.23;6.67;;;43.20;1.00;;;;;;5030800;28;20471;-61
2022/05/18 07:36:00;;;;;;;25.47;6.80;;;43.40;1.00;;;;;;5029769;28;20490;-64
2022/05/18 07:38:30;;;;;;;26.30;6.97;;;43.70;1.00;;;;;;5031437;28;20487;-64
2022/05/18 07:40:56;;;;;;;25.13;6.87;;;43.90;1.00;;;;;;5027673;28;20462;-64
2022/05/18 07:43:25;;;;;;;28.67;6.23;;;44.50;1.00;;;;;;5026953;28;20467;-62
2022/05/18 07:45:54;;;;;;;29.53;7.17;;;44.80;1.00;;;;;;5029427;28;20480;-63
2022/05/18 07:48:22;;;;;;;24.60;6.57;;;45.00;1.00;;;;;;5031668;28;20494;-62
2022/05/18 07:50:48;;;;;;;24.20;6.57;;;45.20;1.00;;;;;;5029080;28;20494;-61
2022/05/18 07:53:15;;;;;;;27.07;6.90;;;45.20;1.00;;;;;;5030675;28;20486;-61
2022/05/18 07:55:42;;;;;;;23.20;6.23;;;45.20;1.00;;;;;;5031351;28;20525;-60
2022/05/18 07:58:12;;;;;;;24.93;6.90;;;45.40;1.00;;;;;;5031198;28;20478;-63
2022/05/18 08:00:40;;;;;;;24.37;6.50;;;45.40;1.00;;;;;;5028345;28;20466;-61
2022/05/18 08:03:07;;;;;;;23.80;5.57;;;45.20;1.00;;;;;;5029272;28;20463;-61
2022/05/18 08:05:34;;;;;;;22.97;5.40;;;45.00;1.00;;;;;;5031011;28;20542;-62
2022/05/18 08:08:05;;;;;;;24.60;6.33;;;44.90;1.00;;;;;;5030184;28;22572;-62
2022/05/18 08:16:01;;;;;;;25.03;6.93;;;44.70;1.00;;;;;;5026526;28;20454;-61
2022/05/18 08:18:28;;;;;;;24.07;5.73;;;45.00;1.00;;;;;;5029818;28;20482;-61
2022/05/18 08:20:55;;;;;;;26.90;7.53;;;44.90;1.00;;;;;;5029061;28;20451;-60
2022/05/18 08:23:21;;;;;;;24.37;6.53;;;44.70;1.00;;;;;;5029539;28;20455;-60
2022/05/18 08:25:48;;;;;;;23.57;5.10;;;44.80;1.00;;;;;;5030397;28;20458;-62
2022/05/18 08:28:16;;;;;;;25.00;6.67;;;44.80;1.00;;;;;;5030860;28;20482;-60
2022/05/18 08:30:43;;;;;;;23.73;6.90;;;45.10;1.00;;;;;;5022380;28;20518;-62
2022/05/18 08:33:11;;;;;;;25.23;5.20;;;45.80;1.00;;;;;;5023416;28;20466;-61
2022/05/18 08:35:39;;;;;;;23.73;4.93;;;46.70;1.00;;;;;;5030582;28;20481;-60
2022/05/18 08:38:07;;;;;;;23.57;5.47;;;47.20;1.00;;;;;;5027004;28;20544;-59
2022/05/18 08:40:39;;;;;;;23.83;5.60;;;47.60;1.00;;;;;;5026585;28;20462;-61
2022/05/18 08:43:08;;;;;;;21.77;4.70;;;47.70;1.00;;;;;;5026517;28;20462;-60
2022/05/18 08:45:41;;;;;;;21.77;4.30;;;48.00;1.00;;;;;;5029941;28;20453;-60
2022/05/18 08:48:21;;;;;;;22.97;4.90;;;47.70;1.00;;;;;;5028231;28;20512;-62
2022/05/18 08:50:48;;;;;;;22.47;5.33;;;47.30;1.00;;;;;;5026980;28;20479;-62
2022/05/18 08:53:31;;;;;;;25.67;4.97;;;47.40;1.00;;;;;;5029240;28;20462;-60
2022/05/18 08:56:04;;;;;;;23.23;4.47;;;47.30;1.00;;;;;;5028715;28;20463;-60
2022/05/18 08:58:39;;;;;;;23.63;4.90;;;47.70;1.00;;;;;;5025546;28;20479;-59
2022/05/18 09:01:12;;;;;;;22.43;4.73;;;47.90;1.00;;;;;;5027165;28;20473;-64
2022/05/18 09:03:42;;;;;;;22.93;4.60;;;47.60;1.00;;;;;;5029306;28;20459;-63
2022/05/18 09:06:27;;;;;;;22.87;4.80;;;47.20;1.00;;;;;;5024499;28;20457;-62
2022/05/18 09:11:46;;;;;;;22.97;5.27;;;46.80;1.00;;;;;;5023098;28;20466;-62
2022/05/18 09:14:17;;;;;;;22.90;5.20;;;47.00;1.00;;;;;;5026319;28;20524;-61
2022/05/18 09:16:51;;;;;;;22.33;4.50;;;46.70;1.00;;;;;;5028259;28;20459;-61
2022/05/18 09:19:26;;;;;;;22.23;4.27;;;46.40;1.00;;;;;;5017240;28;20486;-62
2022/05/18 09:22:03;;;;;;;22.50;4.93;;;46.40;1.00;;;;;;5023117;28;20506;-62
2022/05/18 09:24:43;;;;;;;22.90;4.43;;;46.70;1.00;;;;;;5029039;28;20520;-62
2022/05/18 09:27:27;;;;;;;27.83;5.00;;;46.70;1.00;;;;;;5029268;28;20474;-60
2022/05/18 09:30:03;;;;;;;23.97;4.27;;;47.10;1.00;;;;;;5026166;28;20479;-61
2022/05/18 09:32:49;;;;;;;23.60;4.30;;;47.00;1.00;;;;;;5027476;28;20471;-63
2022/05/18 09:35:39;;;;;;;23.57;4.40;;;46.20;1.00;;;;;;5023759;28;20521;-61
2022/05/18 09:38:09;;;;;;;22.37;4.10;;;45.40;1.00;;;;;;5026145;28;20479;-63
2022/05/18 09:40:41;;;;;;;22.80;4.63;;;45.00;1.00;;;;;;5029399;28;20462;-62
2022/05/18 09:43:13;;;;;;;24.30;4.60;;;44.70;1.00;;;;;;5028330;28;20488;-62
2022/05/18 09:45:44;;;;;;;23.60;4.63;;;43.90;1.00;;;;;;5026877;28;20469;-64
2022/05/18 09:48:15;;;;;;;22.70;4.47;;;42.90;1.00;;;;;;5029092;28;21020;-64
2022/05/18 09:50:45;;;;;;;23.27;4.87;;;42.00;1.00;;;;;;5027153;28;20494;-66
2022/05/18 09:53:13;;;;;;;22.90;4.20;;;40.50;1.00;;;;;;5028550;28;20458;-65
2022/05/18 09:55:41;;;;;;;23.53;4.17;;;39.10;1.00;;;;;;5026174;28;20473;-63
2022/05/18 09:58:13;;;;;;;24.90;4.80;;;37.80;1.00;;;;;;5028781;28;20541;-63
2022/05/18 10:00:41;;;;;;;28.30;4.63;;;36.70;1.00;;;;;;5028535;28;20479;-63
2022/05/18 10:08:52;;;;;;;24.90;3.80;;;34.40;1.00;;;;;;5029370;28;20465;-63
2022/05/18 10:11:22;;;;;;;27.63;4.90;;;34.00;1.00;;;;;;5032003;28;20541;-67
2022/05/18 10:14:02;;;;;;;28.80;3.93;;;33.40;1.00;;;;;;5033498;28;20479;-59
2022/05/18 10:16:39;;;;;;;26.07;4.20;;;32.70;1.00;;;;;;5038381;28;20462;-60
2022/05/18 10:19:14;;;;;;;26.40;4.50;;;32.20;1.00;;;;;;5045854;28;20478;-59
2022/05/18 10:21:51;;;;;;;30.93;5.70;;;31.80;1.00;;;;;;5032032;28;20833;-58
2022/05/18 10:24:27;;;;;;;26.53;4.97;;;31.30;1.00;;;;;;5028801;28;20455;-58
2022/05/18 10:27:09;;;;;;;26.13;4.43;;;30.90;1.00;;;;;;5028955;28;20463;-59
2022/05/18 10:29:35;;;;;;;26.00;4.90;;;30.40;1.00;;;;;;5026545;28;20491;-58
2022/05/18 10:32:06;;;;;;;26.60;4.80;;;30.00;1.00;;;;;;5027962;28;21031;-58
2022/05/18 10:34:40;;;;;;;26.00;4.30;;;29.70;1.00;;;;;;5027123;28;20459;-59
2022/05/18 10:37:11;;;;;;;26.40;5.30;;;29.40;1.00;;;;;;5028196;28;20473;-58
2022/05/18 10:39:41;;;;;;;27.20;5.80;;;29.20;1.00;;;;;;5025323;28;21024;-57
2022/05/18 10:42:15;;;;;;;27.63;6.10;;;29.00;2.10;;;;;;5033337;28;20546;-58
2022/05/18 10:44:43;;;;;;;28.70;5.90;;;28.70;2.80;;;;;;5025799;28;20536;-58
2022/05/18 10:47:29;;;;;;;28.60;5.23;;;28.40;3.10;;;;;;5028705;28;20455;-60
2022/05/18 10:50:23;;;;;;;28.40;6.13;;;28.20;3.70;;;;;;5025958;28;20538;-58
2022/05/18 10:52:53;;;;;;;26.63;5.20;;;28.10;3.60;;;;;;5024637;28;20486;-59
2022/05/18 10:55:23;;;;;;;26.23;5.20;;;28.10;3.80;;;;;;5026426;28;20459;-57
2022/05/18 10:57:57;;;;;;;26.10;4.33;;;28.10;2.70;;;;;;5027637;28;20474;-57
2022/05/18 11:00:27;;;;;;;28.40;4.90;;;27.90;2.90;;;;;;5026856;28;20554;-57
2022/05/18 11:03:00;;;;;;;27.63;4.90;;;27.70;2.80;;;;;;5021243;28;20469;-58
2022/05/18 11:05:38;;;;;;;27.07;5.30;;;27.60;3.50;;;;;;5027660;28;21152;-57
2022/05/18 11:08:14;;;;;;;28.13;5.17;;;27.60;4.20;;;;;;5027126;28;21014;-59
2022/05/18 11:10:53;;;;;;;26.77;4.73;;;27.60;4.40;;;;;;5022776;28;20499;-58
2022/05/18 11:13:28;;;;;;;26.43;4.10;;;27.40;3.80;;;;;;5024009;28;20983;-58
2022/05/18 11:16:11;;;;;;;27.63;4.47;;;27.30;3.80;;;;;;5020498;28;20451;-57
2022/05/18 11:18:44;;;;;;;26.10;4.73;;;27.20;4.30;;;;;;5025567;28;20497;-58
2022/05/18 11:21:20;;;;;;;28.93;4.50;;;27.10;4.50;;;;;;5024975;28;21004;-57
2022/05/18 11:23:59;;;;;;;28.07;4.83;;;27.10;3.90;;;;;;5026968;28;20499;-69
2022/05/18 11:26:36;;;;;;;27.10;5.03;;;27.00;5.10;;;;;;5023018;28;21075;-61
2022/05/18 11:29:14;;;;;;;27.33;4.70;;;27.00;5.00;;;;;;5033805;28;20490;-60
2022/05/18 11:31:57;;;;;;;26.20;4.90;;;26.90;5.00;;;;;;5022789;28;20552;-64
2022/05/18 11:34:36;;;;;;;25.93;4.47;;;26.90;5.10;;;;;;5023001;28;20463;-62
2022/05/18 11:37:17;;;;;;;25.77;4.87;;;27.00;6.70;;;;;;5018552;28;20465;-62
2022/05/18 11:39:55;;;;;;;26.27;5.23;;;27.00;6.30;;;;;;5021375;28;21035;-63
2022/05/18 11:42:35;;;;;;;26.50;5.57;;;27.10;6.10;;;;;;5023201;28;20459;-63
2022/05/18 11:45:10;;;;;;;25.90;4.33;;;27.20;6.40;;;;;;5018312;28;20462;-62
2022/05/18 11:48:05;;;;;;;27.03;4.90;;;27.30;5.70;;;;;;5024753;28;20513;-64
2022/05/18 11:50:49;;;;;;;26.90;5.50;;;27.20;6.10;;;;;;5013017;28;20483;-58
2022/05/18 11:53:30;;;;;;;25.60;4.30;;;27.10;4.50;;;;;;5016731;28;20455;-58
2022/05/18 11:56:11;;;;;;;26.97;4.00;;;27.10;4.80;;;;;;5024387;28;21152;-59
2022/05/18 11:58:53;;;;;;;28.07;4.77;;;27.00;4.30;;;;;;5019648;28;20485;-59
2022/05/18 12:01:32;;;;;;;26.00;3.87;;;26.80;4.80;;;;;;5021119;28;20570;-59
2022/05/18 12:04:19;;;;;;;25.90;4.20;;;26.80;4.60;;;;;;5024547;28;20476;-58
2022/05/18 12:07:01;;;;;;;25.93;4.10;;;26.60;4.30;;;;;;5025159;28;20471;-61
2022/05/18 12:09:59;;;;;;;27.37;4.10;;;26.60;5.60;;;;;;5022136;28;20486;-58
2022/05/18 12:12:39;;;;;;;26.60;4.33;;;26.50;5.10;;;;;;5018063;28;20925;-59
2022/05/18 12:15:13;;;;;;;26.90;4.57;;;26.50;5.20;;;;;;5023363;28;20458;-60
2022/05/18 12:17:45;;;;;;;25.83;4.10;;;26.60;5.50;;;;;;5028878;28;20474;-60
2022/05/18 12:20:18;;;;;;;27.43;4.80;;;26.60;5.60;;;;;;5032551;28;20473;-61
2022/05/18 12:22:49;;;;;;;27.50;5.83;;;26.60;5.70;;;;;;5023300;28;21005;-63
2022/05/18 12:25:21;;;;;;;26.70;4.37;;;26.50;5.10;;;;;;5027319;28;20471;-63
2022/05/18 12:27:51;;;;;;;26.67;5.37;;;26.50;4.70;;;;;;5027318;28;20513;-61
2022/05/18 12:30:22;;;;;;;31.40;5.30;;;26.50;5.00;;;;;;5027099;28;20462;-63
2022/05/18 12:32:51;;;;;;;26.37;4.27;;;26.40;5.80;;;;;;5028279;28;20473;-62
2022/05/18 12:35:22;;;;;;;26.23;4.00;;;26.40;5.00;;;;;;5028939;28;20821;-63
2022/05/18 12:37:52;;;;;;;29.03;5.33;;;26.40;6.10;;;;;;5028079;28;20514;-64
2022/05/18 12:40:30;;;;;;;27.90;4.10;;;26.50;6.20;;;;;;5029387;28;20466;-61
2022/05/18 12:43:04;;;;;;;26.00;4.23;;;26.50;5.30;;;;;;5032803;28;20893;-62
2022/05/18 12:45:38;;;;;;;26.57;4.10;;;26.50;5.70;;;;;;5029868;28;20463;-62
2022/05/18 12:48:23;;;;;;;27.27;4.67;;;26.50;5.50;;;;;;5025555;28;20486;-60
2022/05/18 12:51:05;;;;;;;27.07;4.43;;;26.50;4.70;;;;;;5029721;28;20486;-62
2022/05/18 12:53:46;;;;;;;25.97;3.83;;;26.50;5.80;;;;;;5048353;22;20494;-68
2022/05/18 12:56:19;;;;;;;27.50;3.63;;;26.50;5.60;;;;;;5024250;28;20477;-68
2022/05/18 12:58:55;;;;;;;27.10;3.70;;;26.50;5.80;;;;;;5030171;28;20459;-69
2022/05/18 13:01:23;;;;;;;26.30;3.47;;;26.50;6.00;;;;;;5029981;28;20482;-68
2022/05/18 13:04:01;;;;;;;27.37;3.80;;;26.40;4.80;;;;;;5029762;28;20477;-70
2022/05/18 13:06:48;;;;;;;25.53;3.43;;;26.50;5.80;;;;;;5029986;28;20440;-69
2022/05/18 13:09:34;;;;;;;26.70;4.10;;;26.50;5.40;;;;;;5029942;28;20439;-68
2022/05/18 13:12:26;;;;;;;26.47;3.57;;;26.40;5.20;;;;;;5030683;28;20526;-68
2022/05/18 13:15:00;;;;;;;26.20;3.50;;;26.40;6.00;;;;;;5032141;28;20463;-68